Time;durP1;ratioP1;P1;durP2;ratioP2;P2;SDS_P1;SDS_P2;PMS_P1;PMS_P2;Temp;Humidity;BMP_temperature;BMP_pressure;BME280_temperature;BME280_humidity;BME280_pressure;Samples;Min_cycle;Max_cycle;Signal;HPM_P1;HPM_P2
2022/06/13 00:01:37;;;;;;;11.15;5.72;;;;;;;11.90;100.00;101899.72;5206399;28;20026;-67
2022/06/13 00:04:09;;;;;;;15.02;5.68;;;;;;;11.82;100.00;101904.66;5202079;28;20034;-67
2022/06/13 00:06:41;;;;;;;11.32;5.75;;;;;;;11.80;100.00;101895.91;5202255;28;20030;-67
2022/06/13 00:09:12;;;;;;;10.35;5.10;;;;;;;11.81;100.00;101894.91;5204882;28;20049;-67
2022/06/13 00:11:43;;;;;;;11.02;5.13;;;;;;;11.73;100.00;101894.56;5202810;28;20081;-67
2022/06/13 00:14:15;;;;;;;11.90;4.97;;;;;;;11.67;100.00;101887.78;5205627;28;20061;-67
2022/06/13 00:16:46;;;;;;;13.38;5.07;;;;;;;11.64;100.00;101882.66;5206448;28;20025;-67
2022/06/13 00:19:17;;;;;;;9.43;5.03;;;;;;;11.59;100.00;101890.13;5201903;28;20133;-67
2022/06/13 00:21:48;;;;;;;10.15;4.82;;;;;;;11.51;100.00;101881.75;5203153;28;20096;-66
2022/06/13 00:24:20;;;;;;;10.93;5.13;;;;;;;11.52;100.00;101880.75;5201836;28;20062;-66
2022/06/13 00:26:51;;;;;;;13.80;6.03;;;;;;;11.62;100.00;101873.00;5206003;28;20034;-67
2022/06/13 00:29:22;;;;;;;13.23;5.60;;;;;;;11.57;100.00;101879.50;5206838;28;20038;-67
2022/06/13 00:31:54;;;;;;;11.75;5.65;;;;;;;11.52;100.00;101881.63;5203112;28;20187;-67
2022/06/13 00:34:25;;;;;;;12.20;5.63;;;;;;;11.54;100.00;101878.84;5203465;28;20070;-67
2022/06/13 00:36:56;;;;;;;10.40;5.40;;;;;;;11.58;100.00;101872.34;5205351;28;20057;-67
2022/06/13 00:39:28;;;;;;;12.27;6.07;;;;;;;11.57;100.00;101878.66;5205519;28;20088;-67
2022/06/13 00:41:59;;;;;;;12.98;5.88;;;;;;;11.56;100.00;101875.16;5205217;28;20065;-67
2022/06/13 00:44:37;;;;;;;11.55;5.88;;;;;;;11.54;100.00;101865.47;5202075;28;20030;-67
2022/06/13 00:47:13;;;;;;;12.75;6.15;;;;;;;11.59;100.00;101871.41;5205802;28;20525;-67
2022/06/13 00:49:45;;;;;;;14.60;5.72;;;;;;;11.68;100.00;101869.97;5203778;28;20379;-67
2022/06/13 00:52:34;;;;;;;15.82;5.82;;;;;;;11.68;100.00;101870.81;5204760;28;20021;-67
2022/06/13 00:55:09;;;;;;;12.68;5.60;;;;;;;11.75;100.00;101863.25;5201736;28;20275;-67
2022/06/13 00:57:41;;;;;;;16.13;6.07;;;;;;;11.92;100.00;101859.50;5206936;28;20550;-67
2022/06/13 01:00:15;;;;;;;10.73;5.85;;;;;;;11.96;100.00;101872.56;5204292;28;20033;-66
2022/06/13 01:02:50;;;;;;;13.13;6.65;;;;;;;12.01;100.00;101874.09;5205797;28;20096;-66
2022/06/13 01:05:25;;;;;;;14.88;6.28;;;;;;;12.07;100.00;101865.66;5204136;28;20500;-66
2022/06/13 01:07:59;;;;;;;13.68;6.40;;;;;;;12.08;100.00;101872.69;5202526;28;20034;-66
2022/06/13 01:13:22;;;;;;;12.73;6.43;;;;;;;12.21;100.00;101868.25;5203499;28;20038;-66
2022/06/13 01:16:12;;;;;;;15.70;6.13;;;;;;;12.20;99.94;101871.91;5203413;28;20432;-66
2022/06/13 01:19:14;;;;;;;9.73;6.10;;;;;;;12.21;100.00;101875.44;5207785;28;20397;-66
2022/06/13 01:22:18;;;;;;;13.25;7.22;;;;;;;12.22;100.00;101866.47;5205464;28;20056;-66
2022/06/13 01:25:10;;;;;;;15.07;7.82;;;;;;;12.17;100.00;101858.72;5204008;28;20063;-66
2022/06/13 01:28:03;;;;;;;13.75;6.68;;;;;;;12.21;100.00;101865.56;5204930;28;20079;-66
2022/06/13 01:30:59;;;;;;;14.48;6.88;;;;;;;12.29;100.00;101859.72;5203206;28;20030;-66
2022/06/13 01:33:52;;;;;;;16.45;7.25;;;;;;;12.31;100.00;101856.00;5203122;28;20121;-66
2022/06/13 01:37:00;;;;;;;15.60;7.40;;;;;;;12.33;100.00;101855.84;5204439;28;20133;-66
2022/06/13 01:39:57;;;;;;;13.88;7.18;;;;;;;12.41;100.00;101848.19;5205471;28;20148;-66
2022/06/13 01:42:53;;;;;;;15.07;7.38;;;;;;;12.48;100.00;101840.56;5203082;28;20074;-66
2022/06/13 01:45:55;;;;;;;14.43;7.30;;;;;;;12.50;100.00;101844.00;5210845;28;20029;-66
2022/06/13 01:48:26;;;;;;;14.50;6.80;;;;;;;12.44;100.00;101839.09;5206593;28;20520;-67
2022/06/13 01:51:03;;;;;;;18.23;7.57;;;;;;;12.48;100.00;101841.47;5204083;28;20030;-67
2022/06/13 01:53:49;;;;;;;15.48;6.47;;;;;;;12.48;100.00;101840.56;5205851;28;20037;-67
2022/06/13 01:56:27;;;;;;;10.85;6.60;;;;;;;12.53;100.00;101838.44;5212797;28;20357;-67
2022/06/13 01:59:06;;;;;;;15.30;6.30;;;;;;;12.47;100.00;101841.56;5209720;28;20184;-67
2022/06/13 02:01:41;;;;;;;12.70;6.30;;;;;;;12.51;100.00;101845.72;5206524;28;20029;-67
2022/06/13 02:04:16;;;;;;;12.07;6.78;;;;;;;12.49;98.53;101845.84;5203361;28;20033;-67
2022/06/13 02:06:55;;;;;;;;;;;;;;;12.60;99.31;101858.50;5210639;28;20034;-67
2022/06/13 02:09:38;;;;;;;15.95;6.75;;;;;;;12.53;100.00;101844.66;5202720;28;19920;-67
2022/06/13 02:12:12;;;;;;;15.68;6.00;;;;;;;12.54;98.67;101845.50;5202759;28;20041;-67
2022/06/13 02:14:52;;;;;;;11.77;6.03;;;;;;;12.66;99.71;101847.34;5207676;28;20073;-67
2022/06/13 02:17:29;;;;;;;14.45;6.68;;;;;;;12.57;97.22;101855.16;5209105;28;20025;-67
2022/06/13 02:20:14;;;;;;;15.45;7.10;;;;;;;12.66;100.00;101855.38;5207062;28;20113;-67
2022/06/13 02:22:53;;;;;;;16.35;7.07;;;;;;;12.61;98.42;101859.34;5212022;28;20025;-67
2022/06/13 02:25:28;;;;;;;14.52;7.10;;;;;;;12.61;97.40;101857.50;5211262;28;20034;-66
2022/06/13 02:28:00;;;;;;;13.60;6.50;;;;;;;12.63;97.43;101858.25;5211624;28;20085;-66
2022/06/13 02:30:39;;;;;;;13.40;6.75;;;;;;;12.68;97.24;101847.25;5209554;28;20489;-66
2022/06/13 02:33:15;;;;;;;16.08;6.82;;;;;;;12.76;98.32;101850.25;5209088;28;20034;-66
2022/06/13 02:35:56;;;;;;;14.18;6.93;;;;;;;12.80;100.00;101849.06;5207859;28;20611;-66
2022/06/13 02:38:43;;;;;;;14.98;7.22;;;;;;;12.79;98.60;101849.16;5213523;28;20032;-66
2022/06/13 02:41:19;;;;;;;16.35;6.93;;;;;;;12.84;98.13;101839.84;5218631;28;20071;-66
2022/06/13 02:44:16;;;;;;;14.70;7.30;;;;;;;12.86;97.64;101845.94;5211217;28;20071;-66
2022/06/13 02:46:54;;;;;;;14.75;7.60;;;;;;;12.93;98.99;101841.03;5207888;28;20455;-66
2022/06/13 02:49:50;;;;;;;16.58;7.40;;;;;;;12.85;98.30;101844.25;5210291;28;20032;-66
2022/06/13 02:52:35;;;;;;;16.90;8.60;;;;;;;12.79;97.70;101838.44;5212954;28;20048;-66
2022/06/13 02:55:10;;;;;;;15.10;7.35;;;;;;;12.92;98.44;101845.53;5211278;28;20060;-66
2022/06/13 02:58:01;;;;;;;14.98;7.22;;;;;;;12.86;99.59;101848.63;5207319;28;20046;-66
2022/06/13 03:00:48;;;;;;;13.73;7.43;;;;;;;12.78;98.87;101844.78;5210835;28;20338;-66
2022/06/13 03:03:32;;;;;;;14.13;8.05;;;;;;;12.73;99.37;101837.06;5214109;28;20046;-66
2022/06/13 03:06:22;;;;;;;19.33;8.02;;;;;;;12.78;99.48;101842.13;5207708;28;20517;-66
2022/06/13 03:09:20;;;;;;;14.88;7.13;;;;;;;12.81;100.00;101841.88;5213526;28;20038;-66
2022/06/13 03:12:04;;;;;;;15.43;7.80;;;;;;;12.77;100.00;101837.72;5206800;28;20056;-66
2022/06/13 03:14:42;;;;;;;18.33;7.82;;;;;;;12.73;100.00;101832.59;5208946;28;20072;-66
2022/06/13 03:17:32;;;;;;;17.15;7.55;;;;;;;12.76;99.68;101844.91;5211453;28;20073;-66
2022/06/13 03:20:25;;;;;;;16.58;7.63;;;;;;;12.73;100.00;101845.97;5208478;28;20054;-66
2022/06/13 03:23:10;;;;;;;13.45;7.15;;;;;;;12.68;100.00;101848.09;5207968;28;20467;-66
2022/06/13 03:26:00;;;;;;;16.52;7.78;;;;;;;12.64;100.00;101848.44;5208784;28;20054;-67
2022/06/13 03:28:40;;;;;;;16.90;8.00;;;;;;;12.58;100.00;101848.84;5205252;28;20120;-67
2022/06/13 03:31:33;;;;;;;23.92;8.77;;;;;;;12.57;100.00;101850.66;5210649;28;20076;-67
2022/06/13 03:34:13;;;;;;;15.20;7.80;;;;;;;12.52;100.00;101851.00;5208085;28;20041;-67
2022/06/13 03:36:54;;;;;;;18.33;8.05;;;;;;;12.49;100.00;101843.16;5206189;28;20440;-67
2022/06/13 03:39:31;;;;;;;13.30;8.23;;;;;;;12.46;100.00;101843.34;5223012;28;20562;-67
2022/06/13 03:42:11;;;;;;;15.23;7.88;;;;;;;12.33;100.00;101853.19;5208963;28;20034;-67
2022/06/13 03:44:57;;;;;;;17.02;8.60;;;;;;;12.32;100.00;101859.50;5205452;28;20034;-67
2022/06/13 03:47:34;;;;;;;18.30;8.45;;;;;;;12.25;100.00;101867.09;5208772;28;20053;-67
2022/06/13 03:50:25;;;;;;;17.13;7.80;;;;;;;12.26;100.00;101867.97;5207714;28;20038;-67
2022/06/13 03:53:20;;;;;;;16.20;8.48;;;;;;;12.27;100.00;101870.53;5204061;28;20046;-67
2022/06/13 03:56:01;;;;;;;18.23;8.68;;;;;;;12.17;100.00;101874.78;5204465;28;20390;-66
2022/06/13 03:58:41;;;;;;;17.42;8.10;;;;;;;12.16;100.00;101867.72;5205870;28;20040;-67
2022/06/13 04:01:19;;;;;;;15.68;8.65;;;;;;;12.17;100.00;101872.09;5209887;28;20491;-67
2022/06/13 04:03:51;;;;;;;16.65;8.98;;;;;;;12.12;100.00;101872.41;5208055;28;20088;-67
2022/06/13 04:06:40;;;;;;;20.00;8.60;;;;;;;12.15;100.00;101882.03;5209587;28;20400;-67
2022/06/13 04:09:20;;;;;;;15.88;7.95;;;;;;;12.09;100.00;101874.44;5209463;28;20156;-67
2022/06/13 04:12:29;;;;;;;17.90;8.93;;;;;;;12.16;100.00;101876.59;5209721;28;20034;-67
2022/06/13 04:15:26;;;;;;;20.77;9.25;;;;;;;12.14;100.00;101877.66;5202969;28;20030;-67
2022/06/13 04:18:35;;;;;;;18.88;9.52;;;;;;;12.12;100.00;101883.13;5205952;28;20030;-67
2022/06/13 04:21:31;;;;;;;18.33;9.02;;;;;;;12.05;100.00;101875.59;5206690;28;20079;-67
2022/06/13 04:24:14;;;;;;;18.63;9.25;;;;;;;12.05;100.00;101884.47;5213787;28;20045;-67
2022/06/13 04:27:04;;;;;;;20.70;9.83;;;;;;;12.05;100.00;101888.97;5209689;28;20037;-67
2022/06/13 04:29:42;;;;;;;16.85;9.65;;;;;;;12.08;100.00;101891.44;5204324;28;20087;-67
2022/06/13 04:32:21;;;;;;;17.38;9.30;;;;;;;12.05;100.00;101886.31;5209531;28;20404;-67
2022/06/13 04:34:53;;;;;;;20.23;10.57;;;;;;;12.10;100.00;101894.84;5205791;28;20132;-67
2022/06/13 04:37:25;;;;;;;17.70;9.68;;;;;;;12.16;100.00;101894.47;5207307;28;20026;-67
2022/06/13 04:40:01;;;;;;;18.38;10.02;;;;;;;12.28;100.00;101890.97;5201939;28;20056;-67
2022/06/13 04:42:37;;;;;;;17.05;9.77;;;;;;;12.28;100.00;101898.16;5203522;28;20113;-67
2022/06/13 04:45:31;;;;;;;21.85;10.10;;;;;;;12.43;100.00;101899.78;5205140;28;20029;-67
2022/06/13 04:48:02;;;;;;;18.17;10.00;;;;;;;12.46;100.00;101902.25;5206937;28;20486;-67
2022/06/13 04:50:41;;;;;;;20.67;10.95;;;;;;;12.61;100.00;101902.19;5203334;28;20105;-67
2022/06/13 04:53:18;;;;;;;18.77;10.05;;;;;;;12.66;100.00;101900.91;5203421;28;20038;-67
2022/06/13 04:55:52;;;;;;;16.55;10.18;;;;;;;12.71;100.00;101905.94;5203516;28;20546;-67
2022/06/13 04:58:31;;;;;;;19.30;10.25;;;;;;;12.78;100.00;101906.38;5206587;28;20041;-67
2022/06/13 05:01:14;;;;;;;18.27;10.25;;;;;;;12.87;100.00;101911.13;5204809;28;20099;-67
2022/06/13 05:03:47;;;;;;;17.27;10.35;;;;;;;12.91;100.00;101901.91;5207110;28;20053;-67
2022/06/13 05:06:37;;;;;;;20.13;10.45;;;;;;;12.92;100.00;101908.94;5203771;28;20022;-67
2022/06/13 05:09:08;;;;;;;25.35;10.95;;;;;;;13.02;100.00;101915.41;5207124;28;20492;-67
2022/06/13 05:11:53;;;;;;;24.88;10.98;;;;;;;13.12;100.00;101919.16;5205132;28;20026;-67
2022/06/13 05:14:30;;;;;;;18.60;10.13;;;;;;;13.21;100.00;101919.47;5203972;28;20038;-67
2022/06/13 05:17:21;;;;;;;16.85;10.00;;;;;;;13.30;100.00;101917.00;5205108;28;20112;-67
2022/06/13 05:20:07;;;;;;;17.88;10.60;;;;;;;13.38;100.00;101920.97;5202412;28;20050;-67
2022/06/13 05:22:49;;;;;;;21.60;11.20;;;;;;;13.46;100.00;101919.47;5205143;28;20033;-67
2022/06/13 05:25:35;;;;;;;20.30;11.02;;;;;;;13.54;100.00;101924.28;5210091;28;20037;-67
2022/06/13 05:28:08;;;;;;;25.33;11.52;;;;;;;13.60;100.00;101925.69;5202897;28;20574;-67
2022/06/13 05:30:42;;;;;;;25.77;11.43;;;;;;;13.66;100.00;101926.06;5209319;28;20025;-67
2022/06/13 05:33:17;;;;;;;18.05;10.77;;;;;;;13.78;100.00;101934.19;5210276;28;20322;-67
2022/06/13 05:35:52;;;;;;;21.83;10.88;;;;;;;13.85;100.00;101930.97;5203193;28;20038;-67
2022/06/13 05:38:30;;;;;;;19.35;10.27;;;;;;;13.98;100.00;101935.41;5206341;28;20504;-67
2022/06/13 05:41:02;;;;;;;20.95;10.10;;;;;;;14.06;100.00;101939.25;5210742;28;20037;-67
2022/06/13 05:43:33;;;;;;;20.20;9.85;;;;;;;14.23;100.00;101938.00;5205853;28;20440;-67
2022/06/13 05:46:07;;;;;;;19.48;10.15;;;;;;;14.26;100.00;101945.81;5214154;28;20022;-67
2022/06/13 05:48:38;;;;;;;22.87;9.40;;;;;;;14.41;100.00;101946.50;5203096;28;20030;-67
2022/06/13 05:51:09;;;;;;;20.42;9.60;;;;;;;14.51;100.00;101950.19;5209218;28;20045;-67
2022/06/13 05:53:40;;;;;;;19.25;9.95;;;;;;;14.61;100.00;101953.09;5203415;28;20030;-67
2022/06/13 05:56:12;;;;;;;18.70;8.88;;;;;;;14.69;99.25;101953.38;5205617;28;20403;-67
2022/06/13 05:58:44;;;;;;;22.00;9.10;;;;;;;14.73;98.87;101951.31;5205145;28;20477;-67
2022/06/13 06:01:15;;;;;;;17.98;8.38;;;;;;;14.77;98.33;101954.63;5206514;28;20033;-67
2022/06/13 06:03:47;;;;;;;19.67;8.50;;;;;;;14.87;97.90;101967.22;5202110;28;20030;-67
2022/06/13 06:06:29;;;;;;;21.95;9.57;;;;;;;14.98;99.10;101971.78;5213164;28;20364;-67
2022/06/13 06:09:01;;;;;;;20.58;8.68;;;;;;;15.00;97.54;101971.66;5207944;28;20386;-67
2022/06/13 06:11:33;;;;;;;17.92;8.80;;;;;;;15.04;98.57;101971.28;5209942;28;20030;-67
2022/06/13 06:14:04;;;;;;;21.35;8.57;;;;;;;15.11;97.46;101979.75;5205699;28;20023;-67
2022/06/13 06:16:36;;;;;;;17.45;8.82;;;;;;;15.20;98.08;101987.06;5213911;28;20101;-67
2022/06/13 06:19:07;;;;;;;17.77;8.57;;;;;;;15.33;96.37;101988.81;5214640;28;20455;-67
2022/06/13 06:21:38;;;;;;;20.25;8.65;;;;;;;15.46;96.13;101976.97;5207212;28;20026;-67
2022/06/13 06:24:09;;;;;;;18.33;7.93;;;;;;;15.59;94.58;101987.63;5204838;28;20785;-67
2022/06/13 06:26:41;;;;;;;23.40;8.48;;;;;;;15.58;94.12;101987.75;5207939;28;20519;-67
2022/06/13 06:29:12;;;;;;;17.75;7.57;;;;;;;15.74;94.90;101988.25;5206696;28;20113;-67
2022/06/13 06:31:43;;;;;;;17.95;6.47;;;;;;;15.79;90.87;101988.75;5202251;28;20512;-67
2022/06/13 06:34:15;;;;;;;14.23;5.70;;;;;;;15.77;88.46;101987.16;5211734;28;20029;-67
2022/06/13 06:36:46;;;;;;;14.13;5.60;;;;;;;15.81;87.76;101994.00;5214241;28;20029;-66
2022/06/13 06:39:18;;;;;;;11.95;4.78;;;;;;;15.82;87.08;101999.25;5212495;28;20033;-67
2022/06/13 06:41:49;;;;;;;14.50;4.88;;;;;;;15.69;85.83;101999.34;5211949;28;20042;-67
2022/06/13 06:44:20;;;;;;;12.05;4.43;;;;;;;15.57;83.61;102007.53;5212032;28;20022;-67
2022/06/13 06:46:52;;;;;;;12.98;3.83;;;;;;;15.61;84.05;102017.06;5212186;28;20062;-67
2022/06/13 06:49:23;;;;;;;11.10;3.67;;;;;;;15.60;83.64;102018.06;5216008;28;20034;-67
2022/06/13 06:51:54;;;;;;;13.50;3.78;;;;;;;15.68;81.27;102015.59;5217659;28;20034;-67
2022/06/13 07:00:06;;;;;;;12.40;3.45;;;;;;;15.98;80.70;102019.56;5216680;28;20037;-67
2022/06/13 07:02:38;;;;;;;11.10;3.00;;;;;;;15.94;77.20;102032.41;5216568;28;20026;-67
2022/06/13 07:05:11;;;;;;;10.38;2.30;;;;;;;15.84;73.50;102032.28;5216504;28;20029;-66
2022/06/13 07:07:43;;;;;;;11.13;2.23;;;;;;;15.81;73.12;102020.91;5217313;28;20460;-66
2022/06/13 07:10:14;;;;;;;6.03;1.98;;;;;;;15.87;73.70;102020.41;5215529;28;20602;-67
2022/06/13 07:12:46;;;;;;;8.77;2.30;;;;;;;15.86;72.38;102021.41;5216264;28;20034;-67
2022/06/13 07:15:18;;;;;;;10.13;2.17;;;;;;;15.93;72.69;102024.44;5215734;28;20440;-67
2022/06/13 07:17:49;;;;;;;9.02;2.22;;;;;;;15.95;72.27;102011.72;5214212;28;20396;-67
2022/06/13 07:20:21;;;;;;;7.75;2.50;;;;;;;15.96;72.94;102024.22;5210833;28;20799;-67
2022/06/13 07:22:53;;;;;;;7.55;2.40;;;;;;;16.01;72.42;102020.19;5217797;28;20503;-67
2022/06/13 07:25:29;;;;;;;10.60;3.15;;;;;;;16.06;72.51;102022.47;5217228;28;20420;-67
2022/06/13 07:28:01;;;;;;;12.40;2.90;;;;;;;16.15;73.21;102028.97;5217984;28;20136;-67
2022/06/13 07:30:33;;;;;;;10.07;2.50;;;;;;;16.40;72.76;102025.97;5215130;28;20030;-68
2022/06/13 07:33:04;;;;;;;9.90;2.53;;;;;;;16.69;72.43;102033.47;5212861;28;20029;-68
2022/06/13 07:35:35;;;;;;;9.27;2.35;;;;;;;16.71;70.72;102036.03;5213102;28;20062;-67
2022/06/13 07:38:18;;;;;;;7.55;2.20;;;;;;;16.74;69.52;102030.38;5214008;28;20026;-67
2022/06/13 07:40:54;;;;;;;9.50;3.22;;;;;;;16.81;71.90;102031.56;5215146;28;20518;-67
2022/06/13 07:43:28;;;;;;;8.02;2.50;;;;;;;17.02;70.27;102032.47;5218983;28;20030;-67
2022/06/13 07:46:02;;;;;;;7.70;2.70;;;;;;;17.17;70.42;102032.19;5215256;28;20103;-67
2022/06/13 07:48:34;;;;;;;9.02;2.58;;;;;;;17.03;67.63;102042.28;5218576;28;20072;-67
2022/06/13 07:51:05;;;;;;;9.32;2.28;;;;;;;17.04;68.82;102043.13;5216549;28;20827;-67
2022/06/13 07:53:36;;;;;;;7.35;2.25;;;;;;;17.12;67.73;102040.63;5211251;28;20018;-67
2022/06/13 07:56:12;;;;;;;8.93;2.15;;;;;;;17.11;66.41;102043.50;5216041;28;20474;-67
2022/06/13 07:58:46;;;;;;;8.90;2.60;;;;;;;17.12;68.05;102050.56;5216771;28;20279;-67
2022/06/13 08:01:18;;;;;;;7.95;2.85;;;;;;;17.16;68.36;102055.59;5213516;28;20036;-67
2022/06/13 08:03:51;;;;;;;7.72;2.28;;;;;;;17.21;69.40;102057.91;5217003;28;20034;-67
2022/06/13 08:06:23;;;;;;;8.80;2.67;;;;;;;17.16;68.87;102058.28;5213699;28;20026;-67
2022/06/13 08:08:55;;;;;;;8.35;2.80;;;;;;;17.21;67.51;102055.19;5216171;28;20042;-67
2022/06/13 08:11:37;;;;;;;10.45;2.83;;;;;;;17.25;67.25;102072.81;5214238;28;20030;-67
2022/06/13 08:14:10;;;;;;;9.93;2.30;;;;;;;17.45;67.87;102063.03;5213568;28;20037;-67
2022/06/13 08:16:41;;;;;;;8.32;2.75;;;;;;;17.48;65.82;102067.28;5212970;28;20029;-67
2022/06/13 08:19:13;;;;;;;9.82;3.28;;;;;;;17.41;64.20;102070.53;5215064;28;20577;-66
2022/06/13 08:21:44;;;;;;;8.95;2.67;;;;;;;17.76;65.69;102060.34;5217341;28;20034;-66
2022/06/13 08:24:16;;;;;;;8.90;2.75;;;;;;;17.77;63.17;102067.44;5217064;28;20037;-67
2022/06/13 08:26:48;;;;;;;7.60;2.70;;;;;;;17.82;63.41;102076.00;5215025;28;20053;-67
2022/06/13 08:29:19;;;;;;;7.65;2.45;;;;;;;17.76;63.71;102076.56;5215495;28;20510;-67
2022/06/13 08:31:51;;;;;;;6.75;2.45;;;;;;;17.60;62.66;102082.41;5212467;28;20030;-67
2022/06/13 08:34:22;;;;;;;6.63;2.28;;;;;;;17.60;63.97;102077.91;5215094;28;20034;-67
2022/06/13 08:36:56;;;;;;;9.23;2.55;;;;;;;17.39;64.83;102088.69;5215673;28;20480;-67
2022/06/13 08:39:27;;;;;;;8.57;2.53;;;;;;;17.13;64.60;102090.91;5216602;28;20033;-67
2022/06/13 08:42:08;;;;;;;8.73;2.55;;;;;;;17.22;67.29;102100.03;5216933;28;20018;-67
2022/06/13 08:45:08;;;;;;;6.43;2.45;;;;;;;17.19;65.23;102095.78;5215752;28;20037;-66
2022/06/13 08:47:43;;;;;;;6.95;2.78;;;;;;;17.28;66.76;102094.16;5210798;28;20033;-67
2022/06/13 08:50:38;;;;;;;7.97;2.03;;;;;;;17.49;64.98;102095.97;5215717;28;20083;-67
2022/06/13 08:53:21;;;;;;;6.72;1.70;;;;;;;17.55;62.59;102090.91;5212292;28;20496;-66
2022/06/13 08:56:02;;;;;;;6.10;2.30;;;;;;;17.83;62.24;102086.69;5216626;28;20032;-66
2022/06/13 08:58:42;;;;;;;6.90;2.78;;;;;;;18.01;61.97;102096.88;5212122;28;20099;-67
2022/06/13 09:01:34;;;;;;;6.95;2.55;;;;;;;18.18;63.20;102104.34;5215308;28;20512;-67
2022/06/13 09:04:16;;;;;;;7.55;2.20;;;;;;;18.28;61.19;102100.81;5213686;28;20049;-66
2022/06/13 09:06:48;;;;;;;7.93;1.90;;;;;;;18.49;58.94;102106.16;5210297;28;20760;-66
2022/06/13 09:09:23;;;;;;;6.70;2.53;;;;;;;18.56;58.38;102100.06;5216312;28;20113;-66
2022/06/13 09:12:02;;;;;;;6.32;1.60;;;;;;;18.44;58.14;102111.94;5208636;28;20439;-65
2022/06/13 09:14:44;;;;;;;3.65;1.38;;;;;;;18.25;55.31;102109.19;5207184;28;20078;-66
2022/06/13 09:17:25;;;;;;;7.53;1.35;;;;;;;18.07;56.37;102126.03;5206012;28;20030;-66
2022/06/13 09:20:35;;;;;;;4.50;1.30;;;;;;;18.14;58.57;102118.25;5211620;28;20060;-67
2022/06/13 09:23:17;;;;;;;5.82;1.30;;;;;;;18.27;56.65;102115.31;5208806;28;20026;-66
2022/06/13 09:26:17;;;;;;;5.68;1.48;;;;;;;18.41;57.18;102121.19;5214181;28;20087;-66
2022/06/13 09:29:06;;;;;;;4.47;1.75;;;;;;;18.56;54.63;102123.50;5193944;28;20042;-66
2022/06/13 09:31:45;;;;;;;4.45;1.80;;;;;;;18.98;57.88;102116.09;5210522;28;20366;-67
2022/06/13 09:34:27;;;;;;;4.68;1.85;;;;;;;18.96;56.73;102126.16;5209425;28;20032;-67
2022/06/13 09:37:09;;;;;;;8.32;3.17;;;;;;;18.64;57.52;102125.50;5214824;28;20443;-67
2022/06/13 09:39:42;;;;;;;5.97;1.98;;;;;;;18.31;58.73;102130.25;5215680;28;20033;-67
2022/06/13 09:42:39;;;;;;;9.73;2.20;;;;;;;18.13;59.35;102147.09;5213638;28;20376;-67
2022/06/13 09:45:37;;;;;;;5.53;1.73;;;;;;;18.16;61.61;102146.84;5210310;28;20558;-66
2022/06/13 09:48:36;;;;;;;10.23;1.85;;;;;;;18.19;60.35;102143.84;5211349;28;20079;-66
2022/06/13 09:51:21;;;;;;;7.10;1.90;;;;;;;18.16;60.62;102144.16;5212890;28;20033;-67
2022/06/13 09:54:18;;;;;;;7.60;1.50;;;;;;;18.32;61.09;102151.75;5212914;28;20026;-66
2022/06/13 09:57:14;;;;;;;8.20;1.60;;;;;;;18.35;60.58;102158.72;5213915;28;20038;-67
2022/06/13 10:00:06;;;;;;;9.30;1.75;;;;;;;18.47;61.30;102144.13;5208060;28;20041;-67
2022/06/13 10:02:48;;;;;;;8.52;2.00;;;;;;;18.78;61.64;102144.91;5212209;28;20383;-66
2022/06/13 10:05:33;;;;;;;10.40;2.83;;;;;;;18.94;59.66;102144.38;5219587;28;20038;-67
2022/06/13 10:08:37;;;;;;;6.65;1.70;;;;;;;19.05;54.59;102145.25;5214953;28;20030;-66
2022/06/13 10:11:20;;;;;;;4.47;1.20;;;;;;;19.08;53.46;102143.13;5210947;28;20124;-66
2022/06/13 10:14:20;;;;;;;6.47;1.20;;;;;;;19.05;54.33;102146.09;5212050;28;20165;-66
2022/06/13 10:17:14;;;;;;;6.10;1.48;;;;;;;18.97;54.24;102148.69;5212044;28;21199;-66
2022/06/13 10:20:04;;;;;;;7.38;1.73;;;;;;;18.98;56.80;102150.38;5202629;28;20093;-66
2022/06/13 10:22:42;;;;;;;7.63;3.08;;;;;;;18.89;54.84;102146.66;5204453;28;20029;-66
2022/06/13 10:25:32;;;;;;;6.60;4.53;;;;;;;19.04;56.77;102152.50;5204957;28;20503;-66
2022/06/13 10:28:48;;;;;;;6.90;3.00;;;;;;;19.26;56.64;102143.28;5210171;28;20026;-66
2022/06/13 10:31:29;;;;;;;9.48;4.32;;;;;;;19.15;55.26;102155.06;5204825;28;20038;-65
2022/06/13 10:34:07;;;;;;;5.28;2.78;;;;;;;19.16;58.18;102150.53;5200451;28;20022;-66
2022/06/13 10:36:58;;;;;;;5.38;1.30;;;;;;;19.12;54.85;102157.19;5208881;28;20030;-66
2022/06/13 10:39:31;;;;;;;4.32;1.85;;;;;;;19.24;53.23;102150.69;5213028;28;20030;-66
2022/06/13 10:42:10;;;;;;;5.47;1.92;;;;;;;19.06;53.68;102166.78;5210659;28;20026;-66
2022/06/13 10:44:42;;;;;;;7.07;2.40;;;;;;;18.99;55.50;102154.78;5202690;28;20483;-67
2022/06/13 10:47:21;;;;;;;5.53;1.42;;;;;;;19.25;54.87;102154.22;5208950;28;20117;-67
2022/06/13 10:49:58;;;;;;;4.13;1.00;;;;;;;19.17;52.03;102154.94;5205634;28;20041;-66
2022/06/13 10:52:40;;;;;;;4.80;1.42;;;;;;;19.09;55.00;102161.06;5205910;28;20052;-68
2022/06/13 10:55:17;;;;;;;5.57;1.58;;;;;;;19.06;56.60;102164.06;5206875;28;20123;-66
2022/06/13 10:57:56;;;;;;;7.68;2.22;;;;;;;18.98;53.71;102151.25;5210702;28;20034;-66
2022/06/13 11:00:30;;;;;;;8.07;2.10;;;;;;;19.04;54.14;102165.19;5211915;28;20080;-66
2022/06/13 11:03:16;;;;;;;9.25;2.85;;;;;;;18.90;53.18;102156.47;5211335;28;20025;-67
2022/06/13 11:06:15;;;;;;;6.80;2.42;;;;;;;18.87;53.13;102153.19;5215510;28;20110;-66
2022/06/13 11:08:56;;;;;;;3.53;1.20;;;;;;;18.90;52.42;102166.44;5210950;28;20064;-66
2022/06/13 11:11:31;;;;;;;7.15;1.15;;;;;;;18.58;50.98;102162.94;5217537;28;20472;-66
2022/06/13 11:14:03;;;;;;;5.90;1.10;;;;;;;18.63;53.26;102167.91;5213395;28;20026;-66
2022/06/13 11:22:38;;;;;;;5.22;1.05;;;;;;;19.20;54.01;102163.63;5212511;28;20453;-67
2022/06/13 11:25:31;;;;;;;6.95;1.20;;;;;;;19.17;51.09;102168.47;5213286;28;20033;-66
2022/06/13 11:28:11;;;;;;;11.25;1.42;;;;;;;19.06;50.69;102166.78;5215645;28;20039;-66
2022/06/13 11:30:44;;;;;;;6.30;1.23;;;;;;;18.90;51.58;102167.28;5210330;28;20052;-66
2022/06/13 11:33:17;;;;;;;4.47;0.85;;;;;;;19.22;52.98;102163.50;5214203;28;20092;-66
2022/06/13 11:36:01;;;;;;;3.63;0.80;;;;;;;19.26;48.64;102158.66;5213475;28;20123;-66
2022/06/13 11:38:37;;;;;;;;;;;;;;;19.46;50.19;102159.50;5211624;28;20362;-66
2022/06/13 11:41:26;;;;;;;6.47;1.15;;;;;;;19.70;48.50;102162.59;5211703;28;20368;-66
2022/06/13 11:44:06;;;;;;;5.55;1.60;;;;;;;19.86;49.42;102150.34;5213120;28;20032;-65
2022/06/13 11:46:51;;;;;;;4.93;1.20;;;;;;;19.80;51.23;102157.19;5212437;28;20072;-66
2022/06/13 11:49:32;;;;;;;4.43;1.10;;;;;;;19.74;49.77;102164.06;5208671;28;20044;-67
2022/06/13 11:55:31;;;;;;;5.93;0.98;;;;;;;19.81;51.43;102161.63;5213177;28;20034;-66
2022/06/13 11:58:03;;;;;;;5.70;1.15;;;;;;;19.56;49.77;102165.78;5210766;28;20030;-66
2022/06/13 12:00:46;;;;;;;8.82;1.55;;;;;;;19.63;50.95;102166.03;5211400;28;20083;-66
2022/06/13 12:03:24;;;;;;;5.78;1.58;;;;;;;19.52;47.80;102172.44;5206589;28;20092;-66
2022/06/13 12:06:10;;;;;;;6.00;0.90;;;;;;;19.59;50.70;102163.59;5209512;28;20426;-66
2022/06/13 12:08:49;;;;;;;5.18;1.05;;;;;;;19.67;46.86;102164.75;5212382;28;20369;-66
2022/06/13 12:11:23;;;;;;;3.72;0.90;;;;;;;19.50;46.84;102169.03;5209816;28;20112;-66
2022/06/13 12:13:58;;;;;;;3.67;1.00;;;;;;;19.77;48.63;102166.47;5211885;28;20030;-66
2022/06/13 12:16:37;;;;;;;10.93;1.92;;;;;;;19.55;48.40;102180.28;5208419;28;20033;-66
2022/06/13 12:19:14;;;;;;;5.30;1.25;;;;;;;19.49;49.61;102175.47;5211058;28;20050;-65
2022/06/13 12:21:51;;;;;;;5.28;1.67;;;;;;;19.21;48.77;102172.59;5211380;28;20384;-66
2022/06/13 12:24:31;;;;;;;4.70;0.98;;;;;;;19.19;48.28;102163.78;5209023;28;20030;-64
2022/06/13 12:27:18;;;;;;;6.05;1.00;;;;;;;19.27;45.94;102176.59;5207021;28;20033;-64
2022/06/13 12:30:03;;;;;;;4.03;1.13;;;;;;;19.29;46.39;102183.59;5211328;28;20084;-65
2022/06/13 12:32:41;;;;;;;11.52;1.77;;;;;;;19.12;47.49;102168.03;5204744;28;20373;-66